Time;durP1;ratioP1;P1;durP2;ratioP2;P2;SDS_P1;SDS_P2;PMS_P1;PMS_P2;Temp;Humidity;BMP_temperature;BMP_pressure;BME280_temperature;BME280_humidity;BME280_pressure;Samples;Min_cycle;Max_cycle;Signal;HPM_P1;HPM_P2
2021/08/10 00:03:20;;;;;;;;;;;17.90;99.90;;;16.90;81.88;96039.94;10299362;28;2193;-79
2021/08/10 00:08:23;;;;;;;;;;;17.90;99.90;;;16.82;82.22;96042.59;10289095;28;2900;-80
2021/08/10 00:13:26;;;;;;;;;;;17.80;99.90;;;16.78;82.94;96036.16;10289147;28;2486;-79
2021/08/10 00:18:29;;;;;;;;;;;17.70;99.90;;;16.72;82.96;96038.97;10289035;28;2594;-81
2021/08/10 00:23:31;;;;;;;;;;;17.70;99.90;;;16.70;83.50;96024.94;10302114;28;2551;-81
2021/08/10 00:28:34;;;;;;;;;;;17.60;99.90;;;16.74;83.65;96028.66;10309329;28;2459;-79
2021/08/10 00:33:37;;;;;;;;;;;17.60;99.90;;;16.70;83.93;96019.50;10310527;28;2705;-80
2021/08/10 00:38:40;;;;;;;;;;;17.60;99.90;;;16.61;84.29;96031.38;10297733;28;2465;-80
2021/08/10 00:43:42;;;;;;;;;;;17.50;99.90;;;16.49;85.00;96026.47;10305880;28;2512;-79
2021/08/10 00:48:45;;;;;;;;;;;17.50;99.90;;;16.58;84.70;96026.53;10289729;28;2557;-82
2021/08/10 00:53:48;;;;;;;;;;;17.50;99.90;;;16.63;84.63;96019.09;10302301;28;2619;-80
2021/08/10 00:58:51;;;;;;;;;;;17.40;99.90;;;16.71;83.95;96018.38;10310093;28;2464;-80
2021/08/10 01:03:53;;;;;;;;;;;17.50;99.90;;;16.66;84.17;96023.09;10303610;28;2117;-79
2021/08/10 01:08:56;;;;;;;;;;;17.60;99.90;;;16.47;85.45;96020.53;10302446;28;2574;-81
2021/08/10 01:13:59;;;;;;;;;;;17.50;99.90;;;16.42;85.70;96018.75;10313366;28;2654;-81
2021/08/10 01:19:01;;;;;;;;;;;17.40;99.90;;;16.42;86.31;96017.94;10315397;28;2520;-81
2021/08/10 01:24:05;;;;;;;;;;;17.30;99.90;;;16.39;86.34;96010.41;10324548;28;2016;-81
2021/08/10 01:29:08;;;;;;;;;;;17.30;99.90;;;16.40;86.25;96006.56;10322200;28;1803;-80
2021/08/10 01:34:11;;;;;;;;;;;17.30;99.90;;;16.43;85.89;96009.50;10326518;28;1296;-81
2021/08/10 01:39:13;;;;;;;;;;;17.30;99.90;;;16.36;85.70;96006.41;10333949;28;1883;-79
2021/08/10 01:44:16;;;;;;;;;;;17.30;99.90;;;16.27;86.43;96007.41;10318358;28;1901;-80
2021/08/10 01:49:19;;;;;;;;;;;17.30;99.90;;;16.29;86.55;96008.72;10309503;28;2656;-80
2021/08/10 01:54:22;;;;;;;;;;;17.30;99.90;;;16.19;87.01;96001.59;10292977;28;2070;-80
2021/08/10 01:59:25;;;;;;;;;;;17.20;99.90;;;16.05;87.31;95997.31;10319375;28;2504;-81
2021/08/10 02:04:27;;;;;;;;;;;17.10;99.90;;;16.05;87.56;95994.59;10301910;28;2575;-80
2021/08/10 02:09:30;;;;;;;;;;;17.00;99.90;;;16.09;87.39;96001.78;10318770;28;2217;-82
2021/08/10 02:14:33;;;;;;;;;;;17.00;99.90;;;16.01;87.65;95996.28;10307321;28;2506;-79
2021/08/10 02:19:36;;;;;;;;;;;17.00;99.90;;;16.12;86.47;95993.06;10317685;28;2456;-78
2021/08/10 02:24:39;;;;;;;;;;;17.00;99.90;;;16.13;85.97;95986.53;10302965;28;2527;-79
2021/08/10 02:29:42;;;;;;;;;;;17.00;99.90;;;16.07;86.01;95985.03;10285161;28;2470;-79
2021/08/10 02:34:44;;;;;;;;;;;17.10;99.90;;;15.89;87.13;95989.47;10291127;28;2585;-78
2021/08/10 02:39:47;;;;;;;;;;;17.00;99.90;;;15.97;86.90;95981.72;10295221;28;2087;-82
2021/08/10 02:44:50;;;;;;;;;;;16.90;99.90;;;15.80;88.09;95988.56;10291252;28;2478;-80
2021/08/10 02:49:52;;;;;;;;;;;16.90;99.90;;;15.84;87.91;95969.78;10290011;28;2284;-81
2021/08/10 02:54:55;;;;;;;;;;;16.80;99.90;;;15.77;87.94;95975.59;10298055;28;2742;-81
2021/08/10 02:59:58;;;;;;;;;;;16.80;99.90;;;15.65;88.42;95972.63;10295324;28;2760;-79
2021/08/10 03:05:01;;;;;;;;;;;16.70;99.90;;;15.60;89.10;95964.56;10294456;28;2575;-81
2021/08/10 03:10:03;;;;;;;;;;;16.60;99.90;;;15.67;88.01;95960.38;10301050;28;2604;-80
2021/08/10 03:15:06;;;;;;;;;;;16.60;99.90;;;15.63;87.82;95970.19;10297637;28;2527;-80
2021/08/10 03:20:09;;;;;;;;;;;16.60;99.90;;;15.66;88.46;95968.81;10286657;28;2606;-81
2021/08/10 03:25:12;;;;;;;;;;;16.60;99.90;;;15.71;87.71;95967.88;10310465;28;2486;-81
2021/08/10 03:30:15;;;;;;;;;;;16.60;99.90;;;15.57;88.28;95976.78;10296500;28;2463;-80
2021/08/10 03:35:18;;;;;;;;;;;16.60;99.90;;;15.52;88.69;95976.88;10292454;28;2597;-82
2021/08/10 03:40:20;;;;;;;;;;;16.60;99.90;;;15.48;88.48;95984.00;10305941;28;2150;-79
2021/08/10 03:45:26;;;;;;;;;;;16.50;99.90;;;15.55;88.15;95979.00;10301453;28;2598;-80
2021/08/10 03:50:28;;;;;;;;;;;16.50;99.90;;;15.56;88.32;95980.59;10291377;28;2246;-79
2021/08/10 03:55:31;;;;;;;;;;;16.50;99.90;;;15.65;87.57;95978.84;10320119;28;2213;-78
2021/08/10 04:00:34;;;;;;;;;;;16.50;99.90;;;15.61;87.16;95968.88;10303878;28;2558;-79
2021/08/10 04:05:39;;;;;;;;;;;16.50;99.90;;;15.56;87.26;95969.75;10303680;28;2447;-79
2021/08/10 04:10:41;;;;;;;;;;;16.50;99.90;;;15.49;87.70;95966.66;10318939;28;2619;-78
2021/08/10 04:15:44;;;;;;;;;;;16.50;99.90;;;15.54;87.17;95961.13;10298343;28;2578;-79
2021/08/10 04:20:47;;;;;;;;;;;16.50;99.90;;;15.53;87.71;95953.31;10292621;28;2539;-80
2021/08/10 04:25:50;;;;;;;;;;;16.40;99.90;;;15.61;86.41;95956.13;10288567;28;2593;-80
2021/08/10 04:30:53;;;;;;;;;;;16.50;99.90;;;15.72;85.76;95966.78;10291127;28;2492;-80
2021/08/10 04:35:55;;;;;;;;;;;16.60;99.90;;;16.00;84.69;95952.09;10293119;28;2639;-79
2021/08/10 04:40:58;;;;;;;;;;;16.70;99.90;;;16.26;83.43;95959.69;10297848;28;2535;-81
2021/08/10 04:46:01;;;;;;;;;;;17.00;99.90;;;16.40;82.42;95957.75;10306700;28;2548;-79
2021/08/10 04:51:04;;;;;;;;;;;17.10;99.90;;;16.68;81.10;95950.31;10325014;28;2681;-78
2021/08/10 04:56:07;;;;;;;;;;;17.40;99.90;;;16.80;80.67;95952.53;10322732;28;2630;-81
2021/08/10 05:01:10;;;;;;;;;;;17.50;99.90;;;17.06;79.30;95953.50;10321368;28;2567;-79
2021/08/10 05:06:13;;;;;;;;;;;17.70;99.90;;;17.30;78.38;95950.41;10315997;28;2558;-79
2021/08/10 05:11:17;;;;;;;;;;;18.00;99.90;;;17.52;76.83;95947.66;10308856;28;2000;-80
2021/08/10 05:16:19;;;;;;;;;;;18.20;99.90;;;17.73;75.61;95947.91;10293445;28;2540;-79
2021/08/10 05:21:22;;;;;;;;;;;18.40;99.90;;;18.08;73.11;95948.03;10298457;28;2598;-79
2021/08/10 05:26:25;;;;;;;;;;;18.70;99.90;;;18.67;70.65;95932.09;10297882;28;2570;-80
2021/08/10 05:31:28;;;;;;;;;;;19.10;99.90;;;18.64;70.96;95940.88;10296499;28;2780;-80
2021/08/10 05:36:31;;;;;;;;;;;19.30;99.90;;;18.62;71.52;95940.38;10297263;28;2513;-79
2021/08/10 05:41:34;;;;;;;;;;;19.40;99.90;;;18.90;68.88;95947.13;10296868;28;2221;-77
2021/08/10 05:46:36;;;;;;;;;;;19.50;99.90;;;19.25;67.83;95947.06;10297289;28;2535;-79
2021/08/10 05:51:39;;;;;;;;;;;19.70;99.90;;;19.32;68.13;95949.28;10300924;28;2632;-80
2021/08/10 05:56:42;;;;;;;;;;;19.90;99.90;;;19.60;66.73;95952.44;10295212;28;2476;-80
2021/08/10 06:01:45;;;;;;;;;;;20.10;99.90;;;19.68;66.24;95946.16;10292477;28;2406;-81
2021/08/10 06:06:48;;;;;;;;;;;20.20;99.90;;;19.95;65.95;95953.06;10298338;28;2450;-79
2021/08/10 06:11:51;;;;;;;;;;;20.40;99.90;;;20.29;64.92;95943.88;10289485;28;2445;-80
2021/08/10 06:16:54;;;;;;;;;;;20.70;99.90;;;20.47;62.56;95941.84;10298544;28;2286;-81
2021/08/10 06:21:56;;;;;;;;;;;21.00;99.90;;;20.60;61.21;95945.44;10297998;28;2341;-80
2021/08/10 06:26:59;;;;;;;;;;;21.10;99.90;;;20.89;61.55;95945.38;10295281;28;2381;-81
2021/08/10 06:32:02;;;;;;;;;;;21.30;99.90;;;21.35;59.63;95951.69;10287744;28;2383;-81
2021/08/10 06:37:05;;;;;;;;;;;21.50;99.90;;;21.64;58.52;95945.28;10294339;28;2394;-79
2021/08/10 06:42:08;;;;;;;;;;;21.80;99.90;;;21.69;58.03;95946.97;10295372;28;2466;-79
2021/08/10 06:47:10;;;;;;;;;;;22.20;99.90;;;21.45;57.70;95948.53;10314962;28;2401;-81
2021/08/10 06:52:13;;;;;;;;;;;22.10;99.90;;;20.92;60.15;95946.63;10297254;28;2453;-80
2021/08/10 06:57:16;;;;;;;;;;;21.70;99.90;;;21.02;60.22;95947.00;10292380;28;2723;-80
2021/08/10 07:02:19;;;;;;;;;;;21.50;99.90;;;21.01;61.20;95956.34;10287317;28;2448;-78
2021/08/10 07:07:22;;;;;;;;;;;21.50;99.90;;;20.87;61.58;95955.84;10305204;28;2471;-79
2021/08/10 07:12:27;;;;;;;;;;;21.40;99.90;;;20.97;61.63;95965.56;10295892;28;2384;-80
2021/08/10 07:17:30;;;;;;;;;;;21.40;99.90;;;21.58;59.77;95958.38;10285176;28;2761;-80
2021/08/10 07:22:32;;;;;;;;;;;21.80;99.90;;;22.22;57.27;95956.13;10288598;28;2367;-81
2021/08/10 07:27:36;;;;;;;;;;;22.30;99.90;;;22.11;56.51;95948.38;10294694;28;2342;-80
2021/08/10 07:32:39;;;;;;;;;;;22.60;99.90;;;22.59;54.15;95949.47;10303333;28;2352;-80
2021/08/10 07:37:42;;;;;;;;;;;22.90;99.90;;;23.19;53.34;95950.41;10282251;28;2388;-81
2021/08/10 07:42:47;;;;;;;;;;;23.20;99.90;;;22.96;54.35;95948.56;10294693;28;2463;-80
2021/08/10 07:47:50;;;;;;;;;;;23.50;99.90;;;23.18;52.59;95948.81;10293279;28;2429;-81
2021/08/10 07:52:53;;;;;;;;;;;23.60;99.90;;;22.89;54.28;95947.19;10290993;28;2825;-81
2021/08/10 07:57:56;;;;;;;;;;;23.60;99.90;;;22.91;53.85;95958.63;10293919;28;2414;-79
2021/08/10 08:02:59;;;;;;;;;;;23.70;99.90;;;23.61;50.90;95941.75;10297444;28;2351;-81
2021/08/10 08:08:02;;;;;;;;;;;23.90;99.90;;;23.64;51.50;95954.75;10294652;28;2275;-81
2021/08/10 08:13:04;;;;;;;;;;;24.00;99.90;;;24.37;49.70;95949.88;10305898;28;2181;-81
2021/08/10 08:18:07;;;;;;;;;;;24.40;99.90;;;24.62;46.14;95940.22;10315773;28;2262;-80
2021/08/10 08:23:10;;;;;;;;;;;24.80;99.90;;;24.26;45.28;95942.13;10303497;28;2330;-80
2021/08/10 08:28:13;;;;;;;;;;;24.80;99.90;;;24.23;46.44;95945.59;10287787;28;2424;-82
2021/08/10 08:33:15;;;;;;;;;;;24.70;99.90;;;23.54;47.82;95963.47;10293617;28;2362;-81
2021/08/10 08:38:19;;;;;;;;;;;24.50;99.90;;;23.75;47.48;95957.78;10291001;28;2360;-81
2021/08/10 08:43:22;;;;;;;;;;;24.40;99.90;;;24.15;46.20;95949.31;10301702;28;2872;-80
2021/08/10 08:48:27;;;;;;;;;;;24.50;99.90;;;24.34;46.42;95956.06;10287269;28;2393;-80
2021/08/10 08:53:30;;;;;;;;;;;24.80;99.90;;;24.66;44.97;95945.78;10302758;28;2369;-80
2021/08/10 08:58:32;;;;;;;;;;;25.00;99.90;;;25.03;44.23;95948.91;10321257;28;2302;-80
2021/08/10 09:03:42;;;;;;;;;;;25.30;99.90;;;25.52;44.76;95953.81;10306944;28;2254;-79
2021/08/10 09:09:24;;;;;;;;;;;25.60;99.90;;;25.56;43.32;95949.16;10304382;28;2066;-80
2021/08/10 09:14:28;;;;;;;;;;;25.90;99.90;;;25.46;43.75;95942.31;10303586;28;2580;-79
2021/08/10 09:19:31;;;;;;;;;;;26.00;99.90;;;25.49;42.84;95938.00;10293673;28;2210;-78
2021/08/10 09:24:34;;;;;;;;;;;26.00;99.90;;;25.08;43.78;95934.09;10287234;28;2302;-80
2021/08/10 09:29:36;;;;;;;;;;;26.00;99.90;;;25.97;43.28;95927.47;10305220;28;2278;-80
2021/08/10 09:34:39;;;;;;;;;;;26.30;99.90;;;25.78;41.89;95922.84;10316245;28;2400;-77
2021/08/10 09:39:42;;;;;;;;;;;26.40;99.90;;;25.80;40.98;95921.28;10292998;28;2299;-80
2021/08/10 09:44:45;;;;;;;;;;;26.50;99.90;;;26.25;40.66;95925.13;10287522;28;2585;-80
2021/08/10 09:49:48;;;;;;;;;;;26.60;99.90;;;26.35;40.98;95920.97;10283283;28;2729;-78
2021/08/10 09:54:50;;;;;;;;;;;26.80;99.90;;;26.23;39.54;95913.69;10288487;28;2757;-80
2021/08/10 09:59:53;;;;;;;;;;;26.90;99.90;;;26.23;40.98;95913.69;10293075;28;2396;-81
2021/08/10 10:04:56;;;;;;;;;;;26.90;99.90;;;26.34;41.32;95917.41;10301984;28;2365;-80
2021/08/10 10:09:59;;;;;;;;;;;26.90;99.90;;;26.73;37.27;95908.91;10287140;28;2373;-79
2021/08/10 10:15:01;;;;;;;;;;;27.10;99.90;;;26.31;39.68;95903.56;10293129;28;2328;-78
2021/08/10 10:20:04;;;;;;;;;;;27.20;99.90;;;26.35;41.36;95899.72;10317014;28;2311;-78
2021/08/10 10:25:07;;;;;;;;;;;27.10;99.90;;;26.69;39.49;95891.50;10287840;28;2178;-79
2021/08/10 10:30:10;;;;;;;;;;;27.30;99.90;;;25.94;39.54;95895.94;10296175;28;2278;-78
2021/08/10 10:35:13;;;;;;;;;;;27.00;99.90;;;26.16;38.04;95888.81;10298667;28;2458;-80
2021/08/10 10:40:16;;;;;;;;;;;26.90;99.90;;;25.75;39.07;95885.00;10297489;28;2245;-79
2021/08/10 10:45:18;;;;;;;;;;;26.70;99.80;;;25.54;38.54;95888.19;10296058;28;2385;-80
2021/08/10 10:50:21;;;;;;;;;;;26.50;98.90;;;25.38;39.38;95890.25;10315780;28;2853;-78
2021/08/10 10:55:24;;;;;;;;;;;26.30;99.40;;;25.70;40.04;95877.81;10307111;28;2109;-77
2021/08/10 11:00:27;;;;;;;;;;;26.30;99.90;;;25.90;40.25;95880.53;10294188;28;2440;-80
2021/08/10 11:05:30;;;;;;;;;;;26.60;99.90;;;26.20;38.44;95881.38;10288030;28;2469;-80
2021/08/10 11:10:33;;;;;;;;;;;26.70;99.50;;;26.57;37.87;95878.75;10290547;28;2309;-79
2021/08/10 11:15:36;;;;;;;;;;;27.30;98.30;;;27.25;36.48;95870.50;10294291;28;2299;-79
2021/08/10 11:20:38;;;;;;;;;;;28.60;95.60;;;26.55;37.65;95855.50;10316024;28;2422;-80
2021/08/10 11:25:41;;;;;;;;;;;28.20;95.00;;;26.67;38.16;95860.78;10318244;28;2339;-80
2021/08/10 11:30:44;;;;;;;;;;;27.70;95.30;;;26.56;38.70;95862.59;10299136;28;2331;-79
2021/08/10 11:35:47;;;;;;;;;;;27.40;96.00;;;26.56;39.91;95860.63;10290872;28;2390;-79
2021/08/10 11:40:49;;;;;;;;;;;27.30;98.20;;;26.74;37.04;95857.31;10295088;28;2214;-81
2021/08/10 11:45:52;;;;;;;;;;;27.60;94.50;;;26.82;37.42;95854.25;10302524;28;2309;-79
2021/08/10 11:50:55;;;;;;;;;;;27.60;93.80;;;27.21;35.89;95853.91;10302633;28;2329;-80
2021/08/10 11:55:58;;;;;;;;;;;27.80;92.20;;;27.66;32.93;95847.22;10315111;28;2338;-78
2021/08/10 12:01:01;;;;;;;;;;;28.10;89.40;;;27.64;33.10;95852.34;10316030;28;2237;-81
2021/08/10 12:06:04;;;;;;;;;;;28.10;87.80;;;27.39;34.22;95856.84;10319666;28;2001;-80
2021/08/10 12:11:06;;;;;;;;;;;28.20;88.10;;;27.31;34.98;95857.94;10312143;28;2330;-80
2021/08/10 12:16:10;;;;;;;;;;;28.20;87.70;;;27.70;33.62;95841.75;10293133;28;2003;-79
2021/08/10 12:21:13;;;;;;;;;;;28.30;87.60;;;27.63;34.67;95852.72;10294621;28;2475;-80
2021/08/10 12:26:15;;;;;;;;;;;28.30;87.80;;;27.81;33.23;95845.41;10293087;28;2286;-78
2021/08/10 12:31:18;;;;;;;;;;;28.40;87.30;;;27.47;34.39;95834.44;10291359;28;2321;-81
2021/08/10 12:36:21;;;;;;;;;;;28.50;85.90;;;28.14;33.40;95829.81;10294322;28;2293;-81
2021/08/10 12:41:24;;;;;;;;;;;28.80;85.50;;;28.35;33.23;95820.88;10306730;28;2286;-79
2021/08/10 12:46:27;;;;;;;;;;;29.00;86.00;;;29.00;33.62;95817.19;10303569;28;2283;-80
2021/08/10 12:51:29;;;;;;;;;;;29.50;86.10;;;28.84;33.09;95806.47;10302804;28;2496;-78
2021/08/10 12:56:32;;;;;;;;;;;29.50;84.90;;;29.13;32.82;95806.53;10312219;28;2413;-80
2021/08/10 13:01:35;;;;;;;;;;;29.70;83.90;;;29.28;31.48;95799.84;10290457;28;2348;-79
2021/08/10 13:06:38;;;;;;;;;;;29.70;81.90;;;28.86;31.25;95800.53;10310896;28;2411;-80
2021/08/10 13:11:41;;;;;;;;;;;29.80;80.00;;;28.71;32.95;95791.41;10313121;28;2180;-81
2021/08/10 13:16:51;;;;;;;;;;;29.50;82.00;;;29.21;31.66;95777.72;10318605;28;2274;-77
2021/08/10 13:22:00;;;;;;;;;;;29.70;81.00;;;29.58;33.16;95769.81;10319607;28;2420;-80
2021/08/10 13:27:02;;;;;;;;;;;29.90;82.80;;;30.35;32.04;95769.28;10312256;28;2291;-80
2021/08/10 13:32:05;;;;;;;;;;;30.60;82.60;;;30.05;31.82;95770.53;10301408;28;2222;-80
2021/08/10 13:37:08;;;;;;;;;;;31.00;81.30;;;29.84;31.94;95768.59;10297128;28;2033;-80
2021/08/10 13:42:11;;;;;;;;;;;30.60;80.10;;;28.95;32.87;95760.28;10308541;28;2335;-79
2021/08/10 13:47:13;;;;;;;;;;;30.00;79.80;;;28.55;34.02;95761.31;10309617;28;2312;-80
2021/08/10 13:52:18;;;;;;;;;;;29.40;80.70;;;27.91;34.76;95759.03;10312845;28;2353;-81
2021/08/10 13:57:23;;;;;;;;;;;28.90;80.70;;;27.88;34.27;95753.50;10318435;28;2215;-78
2021/08/10 14:02:26;;;;;;;;;;;28.70;80.50;;;28.20;33.65;95753.66;10319450;28;2329;-80
2021/08/10 14:07:29;;;;;;;;;;;28.70;80.90;;;28.76;32.17;95753.09;10321091;28;2286;-80
2021/08/10 14:12:32;;;;;;;;;;;29.10;79.90;;;29.28;31.69;95750.81;10318145;28;2389;-79
2021/08/10 14:17:34;;;;;;;;;;;29.60;79.00;;;28.67;32.79;95749.91;10307798;28;2317;-78
2021/08/10 14:22:37;;;;;;;;;;;29.70;78.40;;;28.95;33.82;95759.50;10304946;28;2384;-78
2021/08/10 14:27:40;;;;;;;;;;;29.80;80.10;;;28.30;35.42;95752.91;10293065;28;2306;-78
2021/08/10 14:32:43;;;;;;;;;;;29.20;81.70;;;28.18;35.89;95756.78;10292423;28;2278;-81
2021/08/10 14:37:46;;;;;;;;;;;28.90;82.10;;;27.92;36.16;95741.28;10288073;28;2373;-80
2021/08/10 14:42:48;;;;;;;;;;;28.80;82.60;;;27.29;38.14;95753.44;10282543;28;2379;-80
2021/08/10 14:47:51;;;;;;;;;;;28.40;83.90;;;27.00;38.67;95754.34;10285160;28;2369;-80
2021/08/10 14:52:54;;;;;;;;;;;28.00;84.90;;;26.78;39.66;95754.13;10281508;28;2268;-78
2021/08/10 14:57:57;;;;;;;;;;;27.70;85.80;;;27.44;38.47;95752.41;10289085;28;2402;-79
2021/08/10 15:03:00;;;;;;;;;;;27.90;85.40;;;28.21;35.21;95744.19;10302935;28;2419;-79
2021/08/10 15:08:03;;;;;;;;;;;28.50;83.60;;;28.45;34.85;95751.81;10285696;28;2341;-79
2021/08/10 15:13:06;;;;;;;;;;;29.00;82.60;;;28.35;35.72;95737.94;10283956;28;2364;-81
2021/08/10 15:18:08;;;;;;;;;;;29.00;83.00;;;28.42;34.75;95733.22;10290998;28;2226;-79
2021/08/10 15:23:11;;;;;;;;;;;29.10;81.70;;;28.01;35.64;95736.22;10283516;28;2351;-79
2021/08/10 15:28:14;;;;;;;;;;;28.90;81.30;;;27.97;35.59;95723.53;10294658;28;2276;-81
2021/08/10 15:33:17;;;;;;;;;;;28.60;81.70;;;28.12;35.43;95727.16;10290847;28;2258;-80
2021/08/10 15:38:22;;;;;;;;;;;28.70;81.70;;;28.42;34.46;95726.91;10309024;28;2332;-80
2021/08/10 15:43:26;;;;;;;;;;;28.90;81.00;;;28.38;35.60;95721.38;10310248;28;2422;-80
2021/08/10 15:48:29;;;;;;;;;;;29.00;81.90;;;27.98;36.27;95709.34;10311365;28;2329;-78
2021/08/10 15:53:35;;;;;;;;;;;28.90;81.40;;;27.85;36.56;95710.06;10327402;28;2381;-79
2021/08/10 15:58:39;;;;;;;;;;;28.60;81.60;;;27.65;36.94;95707.56;10295990;28;4259;-81
2021/08/10 16:03:42;;;;;;;;;;;28.60;81.60;;;27.58;36.73;95706.72;10309678;28;2316;-79
2021/08/10 16:08:45;;;;;;;;;;;28.50;81.40;;;27.30;37.08;95705.38;10284640;28;2431;-81
2021/08/10 16:13:48;;;;;;;;;;;28.20;81.80;;;27.13;36.11;95708.78;10289094;28;2268;-80
2021/08/10 16:18:51;;;;;;;;;;;28.00;81.30;;;27.09;36.44;95692.19;10313997;28;2368;-79
2021/08/10 16:23:59;;;;;;;;;;;27.90;81.20;;;27.22;36.02;95712.00;10295196;28;2695;-81
2021/08/10 16:29:02;;;;;;;;;;;27.90;80.40;;;27.21;36.92;95699.38;10288845;28;2416;-81
2021/08/10 16:34:04;;;;;;;;;;;28.00;82.20;;;27.10;38.05;95704.00;10297597;28;2725;-80
2021/08/10 16:39:07;;;;;;;;;;;28.00;82.90;;;26.95;38.39;95700.31;10288805;28;2376;-79
2021/08/10 16:44:10;;;;;;;;;;;27.80;82.80;;;26.91;39.05;95707.75;10297921;28;2318;-79
2021/08/10 16:49:17;;;;;;;;;;;27.70;83.40;;;26.55;39.01;95706.66;10295917;28;2388;-79
2021/08/10 16:54:20;;;;;;;;;;;27.50;83.40;;;26.59;39.24;95710.22;10301046;28;2372;-80
2021/08/10 16:59:24;;;;;;;;;;;27.40;84.00;;;26.40;37.91;95717.53;10308962;28;1968;-81
2021/08/10 17:04:27;;;;;;;;;;;27.30;82.80;;;26.18;37.74;95715.66;10310116;28;2384;-80
2021/08/10 17:09:30;;;;;;;;;;;27.10;81.90;;;25.99;38.22;95718.56;10291879;28;2436;-81
2021/08/10 17:14:32;;;;;;;;;;;26.90;81.60;;;25.79;38.21;95715.94;10290316;28;2244;-79
2021/08/10 17:19:39;;;;;;;;;;;26.70;81.90;;;25.74;38.61;95721.78;10273568;28;2229;-79
2021/08/10 17:24:44;;;;;;;;;;;26.60;82.20;;;25.42;39.20;95721.28;10299001;28;2373;-80
2021/08/10 17:29:47;;;;;;;;;;;26.50;82.80;;;25.34;37.57;95716.84;10306479;28;2374;-80
2021/08/10 17:34:59;;;;;;;;;;;26.30;81.20;;;25.30;37.15;95716.78;10322707;28;2309;-79
2021/08/10 17:40:02;;;;;;;;;;;26.20;80.40;;;25.15;36.78;95719.69;10308704;28;2226;-80
2021/08/10 17:45:05;;;;;;;;;;;26.00;79.90;;;24.94;37.65;95718.16;10331822;28;2158;-80
2021/08/10 17:50:08;;;;;;;;;;;25.90;80.30;;;24.80;37.98;95720.66;10315889;28;1712;-79
2021/08/10 17:55:15;;;;;;;;;;;25.80;80.80;;;24.59;38.14;95721.06;10325479;28;2243;-79
2021/08/10 18:00:18;;;;;;;;;;;25.60;80.60;;;24.35;38.56;95732.38;10296231;28;2417;-79
2021/08/10 18:05:24;;;;;;;;;;;25.40;81.00;;;24.16;39.24;95733.16;10301825;28;2650;-79
2021/08/10 18:10:27;;;;;;;;;;;25.30;81.50;;;24.00;40.21;95728.53;10299154;28;2178;-80
2021/08/10 18:15:29;;;;;;;;;;;25.10;82.50;;;23.78;40.74;95736.69;10305398;28;2299;-82
2021/08/10 18:20:32;;;;;;;;;;;24.80;83.40;;;23.56;41.21;95730.69;10314666;28;2236;-81
2021/08/10 18:25:35;;;;;;;;;;;24.70;84.10;;;23.39;43.53;95742.84;10283783;28;2277;-80
2021/08/10 18:30:38;;;;;;;;;;;24.50;84.90;;;23.11;43.13;95745.72;10287877;28;2313;-79
2021/08/10 18:35:41;;;;;;;;;;;24.30;85.20;;;22.85;43.69;95751.72;10295105;28;2300;-83
2021/08/10 18:40:45;;;;;;;;;;;24.10;86.10;;;22.73;44.33;95751.00;10291954;28;2209;-82
2021/08/10 18:45:52;;;;;;;;;;;23.80;86.70;;;22.60;44.76;95767.50;10300038;28;2372;-81
2021/08/10 18:50:56;;;;;;;;;;;23.70;87.50;;;22.43;45.70;95762.31;10300837;28;2341;-78
2021/08/10 18:55:59;;;;;;;;;;;23.60;88.40;;;22.31;46.09;95778.81;10304691;28;2274;-79
2021/08/10 19:01:01;;;;;;;;;;;23.50;88.70;;;21.98;47.50;95787.22;10287710;28;2358;-80
2021/08/10 19:06:04;;;;;;;;;;;23.30;89.80;;;21.86;48.49;95790.78;10289377;28;2470;-77
2021/08/10 19:11:08;;;;;;;;;;;23.00;91.20;;;21.85;49.41;95797.41;10305860;28;2286;-80
2021/08/10 19:16:11;;;;;;;;;;;22.90;92.50;;;21.66;51.23;95805.41;10296625;28;2354;-80
2021/08/10 19:21:14;;;;;;;;;;;22.80;94.00;;;21.64;53.25;95813.16;10297107;28;2337;-80
2021/08/10 19:26:17;;;;;;;;;;;22.70;96.80;;;21.52;54.92;95816.72;10291869;28;2294;-80
2021/08/10 19:31:20;;;;;;;;;;;22.50;98.70;;;21.43;55.71;95807.81;10294770;28;2289;-79
2021/08/10 19:36:23;;;;;;;;;;;22.50;99.90;;;21.27;56.97;95826.81;10282489;28;2274;-80
2021/08/10 19:41:27;;;;;;;;;;;22.40;99.90;;;20.95;58.05;95833.94;10287335;28;2332;-79
2021/08/10 19:46:29;;;;;;;;;;;22.20;99.90;;;20.82;59.34;95832.31;10276140;28;2401;-80
2021/08/10 19:51:34;;;;;;;;;;;22.00;99.90;;;20.81;59.91;95831.50;10284726;28;2342;-81
2021/08/10 19:56:37;;;;;;;;;;;21.90;99.90;;;20.72;60.44;95834.31;10273615;28;2329;-78
2021/08/10 20:01:40;;;;;;;;;;;21.90;99.90;;;20.66;61.11;95841.13;10277852;28;2281;-79
2021/08/10 20:06:43;;;;;;;;;;;21.70;99.90;;;20.61;61.59;95846.78;10283573;28;2276;-79
2021/08/10 20:11:46;;;;;;;;;;;21.70;99.90;;;20.50;62.25;95851.88;10285245;28;2297;-77
2021/08/10 20:16:48;;;;;;;;;;;21.60;99.90;;;20.35;62.88;95852.44;10283637;28;2365;-80
2021/08/10 20:21:51;;;;;;;;;;;21.50;99.90;;;20.23;63.49;95864.13;10287682;28;2305;-79
2021/08/10 20:26:54;;;;;;;;;;;21.40;99.90;;;20.13;64.30;95864.53;10296538;28;2400;-79
2021/08/10 20:31:56;;;;;;;;;;;21.30;99.90;;;20.08;65.10;95872.09;10294957;28;2214;-79
2021/08/10 20:36:59;;;;;;;;;;;21.20;99.90;;;19.99;65.77;95877.63;10284473;28;2341;-79
2021/08/10 20:42:02;;;;;;;;;;;21.10;99.90;;;19.77;67.00;95881.44;10301391;28;2066;-79
2021/08/10 20:47:05;;;;;;;;;;;21.00;99.90;;;19.65;68.37;95887.59;10278956;28;2331;-78
2021/08/10 20:52:07;;;;;;;;;;;20.80;99.90;;;19.68;67.74;95884.22;10277772;28;2285;-77
2021/08/10 20:57:10;;;;;;;;;;;20.80;99.90;;;19.61;67.85;95889.41;10289377;28;2278;-79
2021/08/10 21:02:13;;;;;;;;;;;20.60;99.90;;;19.56;68.40;95896.94;10291587;28;2294;-78
2021/08/10 21:07:16;;;;;;;;;;;20.60;99.90;;;19.44;69.25;95900.34;10284343;28;2407;-77
2021/08/10 21:12:19;;;;;;;;;;;20.50;99.90;;;19.36;69.68;95893.00;10272929;28;2299;-78
2021/08/10 21:17:22;;;;;;;;;;;20.50;99.90;;;19.33;70.24;95905.34;10288007;28;2288;-79
2021/08/10 21:22:25;;;;;;;;;;;20.40;99.90;;;19.20;71.04;95900.91;10290666;28;2378;-77
2021/08/10 21:27:27;;;;;;;;;;;20.30;99.90;;;19.17;71.40;95907.00;10276260;28;2328;-78
2021/08/10 21:32:30;;;;;;;;;;;20.20;99.90;;;19.08;71.71;95917.13;10293252;28;2333;-78
2021/08/10 21:37:33;;;;;;;;;;;20.20;99.90;;;18.96;72.45;95917.81;10290807;28;2457;-79
2021/08/10 21:42:36;;;;;;;;;;;20.00;99.90;;;19.06;72.33;95933.00;10293834;28;2247;-77
2021/08/10 21:47:38;;;;;;;;;;;20.00;99.90;;;18.91;72.27;95937.03;10281634;28;2276;-77
2021/08/10 21:52:41;;;;;;;;;;;20.00;99.90;;;18.85;72.56;95941.03;10272685;28;2366;-78
2021/08/10 21:57:44;;;;;;;;;;;20.00;99.90;;;18.68;73.56;95939.13;10298172;28;2329;-77
2021/08/10 22:02:46;;;;;;;;;;;19.80;99.90;;;18.66;73.87;95941.34;10270363;28;2376;-77
2021/08/10 22:07:50;;;;;;;;;;;19.70;99.90;;;18.60;74.54;95943.44;10272026;28;2345;-77
2021/08/10 22:12:53;;;;;;;;;;;19.60;99.90;;;18.53;74.95;95953.19;10275542;28;2294;-77
2021/08/10 22:17:56;;;;;;;;;;;19.60;99.90;;;18.44;74.70;95955.91;10268869;28;2254;-78
2021/08/10 22:22:59;;;;;;;;;;;19.50;99.90;;;18.39;75.19;95966.16;10270643;28;2337;-80
2021/08/10 22:28:03;;;;;;;;;;;19.40;99.90;;;18.50;76.02;95970.16;10276988;28;2357;-77
2021/08/10 22:33:06;;;;;;;;;;;19.40;99.90;;;18.35;76.34;95960.53;10289171;28;2322;-78
2021/08/10 22:38:10;;;;;;;;;;;19.40;99.90;;;18.29;76.36;95970.78;10286999;28;2276;-79
2021/08/10 22:43:13;;;;;;;;;;;19.30;99.90;;;18.18;77.53;95972.19;10286429;28;2337;-77
2021/08/10 22:48:15;;;;;;;;;;;19.20;99.90;;;18.26;77.25;95976.88;10295402;28;2387;-76
2021/08/10 22:53:22;;;;;;;;;;;19.20;99.90;;;18.30;77.48;95977.03;10270958;28;2417;-78
2021/08/10 22:58:25;;;;;;;;;;;19.20;99.90;;;18.25;77.87;95977.97;10299336;28;2377;-78
2021/08/10 23:03:28;;;;;;;;;;;19.10;99.90;;;18.21;77.83;95982.47;10300819;28;2284;-76
2021/08/10 23:08:30;;;;;;;;;;;19.10;99.90;;;18.20;78.10;95991.75;10297226;28;2328;-78
2021/08/10 23:13:33;;;;;;;;;;;19.00;99.90;;;18.12;78.44;96000.66;10290462;28;2380;-78